sensor_id;sensor_type;location;lat;lon;timestamp;P1;durP1;ratioP1;P2;durP2;ratioP2
21806;SDS011;11065;50.786;7.840;2022-12-07T00:01:21;10.10;;;7.77;;
21806;SDS011;11065;50.786;7.840;2022-12-07T00:03:51;10.73;;;7.47;;
21806;SDS011;11065;50.786;7.840;2022-12-07T00:06:19;8.77;;;6.87;;
21806;SDS011;11065;50.786;7.840;2022-12-07T00:08:47;13.47;;;9.70;;
21806;SDS011;11065;50.786;7.840;2022-12-07T00:11:15;10.30;;;7.90;;
21806;SDS011;11065;50.786;7.840;2022-12-07T00:13:44;10.87;;;7.07;;
21806;SDS011;11065;50.786;7.840;2022-12-07T00:16:13;9.03;;;6.60;;
21806;SDS011;11065;50.786;7.840;2022-12-07T00:18:42;9.30;;;6.70;;
21806;SDS011;11065;50.786;7.840;2022-12-07T00:21:10;10.73;;;8.00;;
21806;SDS011;11065;50.786;7.840;2022-12-07T00:23:49;12.63;;;7.83;;
21806;SDS011;11065;50.786;7.840;2022-12-07T00:26:25;10.27;;;7.30;;
21806;SDS011;11065;50.786;7.840;2022-12-07T00:28:54;10.33;;;6.93;;
21806;SDS011;11065;50.786;7.840;2022-12-07T00:31:25;10.80;;;7.57;;
21806;SDS011;11065;50.786;7.840;2022-12-07T00:33:54;9.03;;;6.90;;
21806;SDS011;11065;50.786;7.840;2022-12-07T00:36:23;9.93;;;7.03;;
21806;SDS011;11065;50.786;7.840;2022-12-07T00:38:57;8.93;;;6.27;;
21806;SDS011;11065;50.786;7.840;2022-12-07T00:41:28;9.87;;;7.13;;
21806;SDS011;11065;50.786;7.840;2022-12-07T00:43:55;7.50;;;5.50;;
21806;SDS011;11065;50.786;7.840;2022-12-07T00:46:23;10.47;;;7.30;;
21806;SDS011;11065;50.786;7.840;2022-12-07T00:48:51;11.20;;;8.10;;
21806;SDS011;11065;50.786;7.840;2022-12-07T00:51:19;10.10;;;7.10;;
21806;SDS011;11065;50.786;7.840;2022-12-07T00:53:48;10.07;;;6.37;;
21806;SDS011;11065;50.786;7.840;2022-12-07T00:56:16;9.97;;;7.40;;
21806;SDS011;11065;50.786;7.840;2022-12-07T00:58:51;9.83;;;6.50;;
21806;SDS011;11065;50.786;7.840;2022-12-07T01:01:26;8.50;;;6.03;;
21806;SDS011;11065;50.786;7.840;2022-12-07T01:03:55;8.90;;;6.17;;
21806;SDS011;11065;50.786;7.840;2022-12-07T01:06:22;8.10;;;6.00;;
21806;SDS011;11065;50.786;7.840;2022-12-07T01:08:50;7.63;;;5.73;;
21806;SDS011;11065;50.786;7.840;2022-12-07T01:11:18;10.17;;;6.27;;
21806;SDS011;11065;50.786;7.840;2022-12-07T01:13:48;8.07;;;5.90;;
21806;SDS011;11065;50.786;7.840;2022-12-07T01:16:16;7.77;;;5.60;;
21806;SDS011;11065;50.786;7.840;2022-12-07T01:18:45;9.67;;;6.43;;
21806;SDS011;11065;50.786;7.840;2022-12-07T01:21:18;8.47;;;5.67;;
21806;SDS011;11065;50.786;7.840;2022-12-07T01:23:47;7.80;;;5.50;;
21806;SDS011;11065;50.786;7.840;2022-12-07T01:26:16;7.87;;;5.63;;
21806;SDS011;11065;50.786;7.840;2022-12-07T01:28:45;7.87;;;6.00;;
21806;SDS011;11065;50.786;7.840;2022-12-07T01:31:13;8.10;;;5.63;;
21806;SDS011;11065;50.786;7.840;2022-12-07T01:33:44;8.00;;;6.13;;
21806;SDS011;11065;50.786;7.840;2022-12-07T01:38:52;7.77;;;5.90;;
21806;SDS011;11065;50.786;7.840;2022-12-07T01:41:23;7.40;;;5.27;;
21806;SDS011;11065;50.786;7.840;2022-12-07T01:46:38;7.17;;;5.37;;
21806;SDS011;11065;50.786;7.840;2022-12-07T01:49:06;6.67;;;5.20;;
21806;SDS011;11065;50.786;7.840;2022-12-07T01:51:36;8.10;;;6.00;;
21806;SDS011;11065;50.786;7.840;2022-12-07T01:54:05;7.60;;;5.73;;
21806;SDS011;11065;50.786;7.840;2022-12-07T01:56:32;8.37;;;6.27;;
21806;SDS011;11065;50.786;7.840;2022-12-07T01:58:59;8.50;;;6.80;;
21806;SDS011;11065;50.786;7.840;2022-12-07T02:01:27;10.60;;;7.13;;
21806;SDS011;11065;50.786;7.840;2022-12-07T02:03:54;10.50;;;8.10;;
21806;SDS011;11065;50.786;7.840;2022-12-07T02:06:23;9.97;;;7.50;;
21806;SDS011;11065;50.786;7.840;2022-12-07T02:08:52;9.30;;;7.23;;
21806;SDS011;11065;50.786;7.840;2022-12-07T02:11:19;11.77;;;8.23;;
21806;SDS011;11065;50.786;7.840;2022-12-07T02:13:47;10.97;;;6.90;;
21806;SDS011;11065;50.786;7.840;2022-12-07T02:16:21;9.83;;;7.33;;
21806;SDS011;11065;50.786;7.840;2022-12-07T02:25:04;10.93;;;7.93;;
21806;SDS011;11065;50.786;7.840;2022-12-07T02:27:39;10.60;;;7.67;;
21806;SDS011;11065;50.786;7.840;2022-12-07T02:30:27;10.97;;;7.13;;
21806;SDS011;11065;50.786;7.840;2022-12-07T02:41:06;9.83;;;7.27;;
21806;SDS011;11065;50.786;7.840;2022-12-07T02:43:39;10.87;;;8.00;;
21806;SDS011;11065;50.786;7.840;2022-12-07T02:46:10;11.40;;;8.67;;
21806;SDS011;11065;50.786;7.840;2022-12-07T02:48:41;11.43;;;8.90;;
21806;SDS011;11065;50.786;7.840;2022-12-07T02:51:09;11.00;;;8.53;;
21806;SDS011;11065;50.786;7.840;2022-12-07T02:53:40;11.67;;;8.37;;
21806;SDS011;11065;50.786;7.840;2022-12-07T02:59:02;12.70;;;8.63;;
21806;SDS011;11065;50.786;7.840;2022-12-07T03:04:15;12.83;;;9.67;;
21806;SDS011;11065;50.786;7.840;2022-12-07T03:12:22;12.73;;;10.37;;
21806;SDS011;11065;50.786;7.840;2022-12-07T03:15:03;13.33;;;9.77;;
21806;SDS011;11065;50.786;7.840;2022-12-07T03:17:37;12.57;;;9.80;;
21806;SDS011;11065;50.786;7.840;2022-12-07T03:20:09;14.70;;;10.83;;
21806;SDS011;11065;50.786;7.840;2022-12-07T03:22:42;13.67;;;9.93;;
21806;SDS011;11065;50.786;7.840;2022-12-07T03:25:12;13.47;;;10.47;;
21806;SDS011;11065;50.786;7.840;2022-12-07T03:27:46;12.97;;;9.83;;
21806;SDS011;11065;50.786;7.840;2022-12-07T03:30:22;16.67;;;12.73;;
21806;SDS011;11065;50.786;7.840;2022-12-07T03:35:33;15.13;;;10.50;;
21806;SDS011;11065;50.786;7.840;2022-12-07T03:38:19;13.97;;;9.90;;
21806;SDS011;11065;50.786;7.840;2022-12-07T03:40:58;13.77;;;10.20;;
21806;SDS011;11065;50.786;7.840;2022-12-07T03:43:29;12.83;;;10.30;;
21806;SDS011;11065;50.786;7.840;2022-12-07T03:46:00;14.40;;;10.97;;
21806;SDS011;11065;50.786;7.840;2022-12-07T03:48:37;14.37;;;10.83;;
21806;SDS011;11065;50.786;7.840;2022-12-07T03:51:19;15.80;;;11.00;;
21806;SDS011;11065;50.786;7.840;2022-12-07T03:53:58;14.67;;;10.70;;
21806;SDS011;11065;50.786;7.840;2022-12-07T03:56:31;14.13;;;10.73;;
21806;SDS011;11065;50.786;7.840;2022-12-07T03:58:59;15.17;;;11.23;;
21806;SDS011;11065;50.786;7.840;2022-12-07T04:01:26;12.80;;;9.67;;
21806;SDS011;11065;50.786;7.840;2022-12-07T04:03:54;13.13;;;9.87;;
21806;SDS011;11065;50.786;7.840;2022-12-07T04:06:21;11.90;;;9.53;;
21806;SDS011;11065;50.786;7.840;2022-12-07T04:08:48;12.73;;;10.33;;
21806;SDS011;11065;50.786;7.840;2022-12-07T04:11:14;11.73;;;9.30;;
21806;SDS011;11065;50.786;7.840;2022-12-07T04:13:41;12.47;;;9.80;;
21806;SDS011;11065;50.786;7.840;2022-12-07T04:16:27;14.00;;;9.27;;
21806;SDS011;11065;50.786;7.840;2022-12-07T04:18:54;12.23;;;9.10;;
21806;SDS011;11065;50.786;7.840;2022-12-07T04:21:21;12.00;;;9.23;;
21806;SDS011;11065;50.786;7.840;2022-12-07T04:23:48;10.70;;;9.17;;
21806;SDS011;11065;50.786;7.840;2022-12-07T04:26:14;12.30;;;9.53;;
21806;SDS011;11065;50.786;7.840;2022-12-07T04:28:41;9.77;;;8.23;;
21806;SDS011;11065;50.786;7.840;2022-12-07T04:31:08;11.93;;;9.13;;
21806;SDS011;11065;50.786;7.840;2022-12-07T04:33:35;11.47;;;9.20;;
21806;SDS011;11065;50.786;7.840;2022-12-07T04:36:02;11.90;;;9.20;;
21806;SDS011;11065;50.786;7.840;2022-12-07T04:38:29;10.20;;;8.33;;
21806;SDS011;11065;50.786;7.840;2022-12-07T04:40:56;10.27;;;8.07;;
21806;SDS011;11065;50.786;7.840;2022-12-07T04:43:23;10.17;;;7.97;;
21806;SDS011;11065;50.786;7.840;2022-12-07T04:45:50;10.33;;;7.97;;
21806;SDS011;11065;50.786;7.840;2022-12-07T04:48:17;10.00;;;7.50;;
21806;SDS011;11065;50.786;7.840;2022-12-07T04:50:44;10.27;;;7.83;;
21806;SDS011;11065;50.786;7.840;2022-12-07T04:53:13;11.20;;;7.93;;
21806;SDS011;11065;50.786;7.840;2022-12-07T04:55:40;9.37;;;7.80;;
21806;SDS011;11065;50.786;7.840;2022-12-07T04:58:07;10.03;;;8.00;;
21806;SDS011;11065;50.786;7.840;2022-12-07T05:00:34;11.00;;;8.90;;
21806;SDS011;11065;50.786;7.840;2022-12-07T05:03:01;13.17;;;9.50;;
21806;SDS011;11065;50.786;7.840;2022-12-07T05:05:28;13.90;;;10.23;;
21806;SDS011;11065;50.786;7.840;2022-12-07T05:07:55;11.40;;;8.70;;
21806;SDS011;11065;50.786;7.840;2022-12-07T05:10:22;12.27;;;9.53;;
21806;SDS011;11065;50.786;7.840;2022-12-07T05:12:49;11.53;;;9.10;;
21806;SDS011;11065;50.786;7.840;2022-12-07T05:15:16;13.07;;;9.00;;
21806;SDS011;11065;50.786;7.840;2022-12-07T05:17:43;11.80;;;8.70;;
21806;SDS011;11065;50.786;7.840;2022-12-07T05:20:10;12.17;;;9.27;;
21806;SDS011;11065;50.786;7.840;2022-12-07T05:22:37;13.33;;;9.67;;
21806;SDS011;11065;50.786;7.840;2022-12-07T05:25:04;12.80;;;9.23;;
21806;SDS011;11065;50.786;7.840;2022-12-07T05:27:31;13.80;;;9.83;;
21806;SDS011;11065;50.786;7.840;2022-12-07T05:30:00;13.03;;;9.93;;
21806;SDS011;11065;50.786;7.840;2022-12-07T05:32:28;14.07;;;10.07;;
21806;SDS011;11065;50.786;7.840;2022-12-07T05:34:55;14.83;;;10.13;;
21806;SDS011;11065;50.786;7.840;2022-12-07T05:37:21;12.97;;;9.60;;
21806;SDS011;11065;50.786;7.840;2022-12-07T05:39:48;13.50;;;9.57;;
21806;SDS011;11065;50.786;7.840;2022-12-07T05:42:15;13.00;;;10.07;;
21806;SDS011;11065;50.786;7.840;2022-12-07T05:44:44;15.17;;;10.63;;
21806;SDS011;11065;50.786;7.840;2022-12-07T05:47:12;15.13;;;10.70;;
21806;SDS011;11065;50.786;7.840;2022-12-07T05:49:40;14.17;;;10.77;;
21806;SDS011;11065;50.786;7.840;2022-12-07T05:52:07;15.67;;;10.70;;
21806;SDS011;11065;50.786;7.840;2022-12-07T05:54:34;14.80;;;11.00;;
21806;SDS011;11065;50.786;7.840;2022-12-07T05:57:01;15.07;;;10.63;;
21806;SDS011;11065;50.786;7.840;2022-12-07T05:59:27;16.07;;;10.37;;
21806;SDS011;11065;50.786;7.840;2022-12-07T06:01:56;15.70;;;11.77;;
21806;SDS011;11065;50.786;7.840;2022-12-07T06:04:25;15.20;;;10.47;;
21806;SDS011;11065;50.786;7.840;2022-12-07T06:06:54;15.90;;;11.43;;
21806;SDS011;11065;50.786;7.840;2022-12-07T06:09:21;16.67;;;10.13;;
21806;SDS011;11065;50.786;7.840;2022-12-07T06:11:49;15.33;;;10.97;;
21806;SDS011;11065;50.786;7.840;2022-12-07T06:14:34;13.43;;;9.87;;
21806;SDS011;11065;50.786;7.840;2022-12-07T06:17:02;13.37;;;10.40;;
21806;SDS011;11065;50.786;7.840;2022-12-07T06:19:29;14.30;;;10.53;;
21806;SDS011;11065;50.786;7.840;2022-12-07T06:21:56;15.23;;;10.63;;
21806;SDS011;11065;50.786;7.840;2022-12-07T06:24:23;16.40;;;11.17;;
21806;SDS011;11065;50.786;7.840;2022-12-07T06:26:50;14.57;;;10.90;;
21806;SDS011;11065;50.786;7.840;2022-12-07T06:29:17;16.80;;;11.10;;
21806;SDS011;11065;50.786;7.840;2022-12-07T06:31:45;12.93;;;10.00;;
21806;SDS011;11065;50.786;7.840;2022-12-07T06:34:13;14.30;;;10.27;;
21806;SDS011;11065;50.786;7.840;2022-12-07T06:36:42;12.93;;;9.93;;
21806;SDS011;11065;50.786;7.840;2022-12-07T06:39:10;13.30;;;9.43;;
21806;SDS011;11065;50.786;7.840;2022-12-07T06:41:38;11.33;;;8.80;;
21806;SDS011;11065;50.786;7.840;2022-12-07T06:44:05;12.37;;;9.17;;
21806;SDS011;11065;50.786;7.840;2022-12-07T06:46:32;11.90;;;9.27;;
21806;SDS011;11065;50.786;7.840;2022-12-07T06:49:01;12.53;;;9.63;;
21806;SDS011;11065;50.786;7.840;2022-12-07T06:51:29;12.63;;;8.80;;
21806;SDS011;11065;50.786;7.840;2022-12-07T06:53:56;14.83;;;9.30;;
21806;SDS011;11065;50.786;7.840;2022-12-07T06:56:23;11.43;;;8.73;;
21806;SDS011;11065;50.786;7.840;2022-12-07T06:58:50;12.80;;;9.20;;
21806;SDS011;11065;50.786;7.840;2022-12-07T07:01:17;11.10;;;8.37;;
21806;SDS011;11065;50.786;7.840;2022-12-07T07:03:45;10.33;;;7.50;;
21806;SDS011;11065;50.786;7.840;2022-12-07T07:06:13;10.63;;;8.00;;
21806;SDS011;11065;50.786;7.840;2022-12-07T07:08:41;9.77;;;7.50;;
21806;SDS011;11065;50.786;7.840;2022-12-07T07:11:08;8.73;;;6.40;;
21806;SDS011;11065;50.786;7.840;2022-12-07T07:13:35;8.93;;;6.27;;
21806;SDS011;11065;50.786;7.840;2022-12-07T07:16:03;9.67;;;6.83;;
21806;SDS011;11065;50.786;7.840;2022-12-07T07:18:31;9.57;;;6.53;;
21806;SDS011;11065;50.786;7.840;2022-12-07T07:20:57;9.23;;;6.50;;
21806;SDS011;11065;50.786;7.840;2022-12-07T07:23:24;9.43;;;6.37;;
21806;SDS011;11065;50.786;7.840;2022-12-07T07:25:52;9.80;;;7.27;;
21806;SDS011;11065;50.786;7.840;2022-12-07T07:28:19;10.40;;;7.37;;
21806;SDS011;11065;50.786;7.840;2022-12-07T07:30:46;10.50;;;7.57;;
21806;SDS011;11065;50.786;7.840;2022-12-07T07:33:13;10.43;;;8.13;;
21806;SDS011;11065;50.786;7.840;2022-12-07T07:35:40;11.97;;;7.57;;
21806;SDS011;11065;50.786;7.840;2022-12-07T07:38:07;9.53;;;7.10;;
21806;SDS011;11065;50.786;7.840;2022-12-07T07:40:35;8.63;;;6.40;;
21806;SDS011;11065;50.786;7.840;2022-12-07T07:43:02;7.93;;;5.70;;
21806;SDS011;11065;50.786;7.840;2022-12-07T07:45:29;8.90;;;6.17;;
21806;SDS011;11065;50.786;7.840;2022-12-07T07:47:56;8.57;;;6.23;;
21806;SDS011;11065;50.786;7.840;2022-12-07T07:50:25;8.00;;;5.60;;
21806;SDS011;11065;50.786;7.840;2022-12-07T07:52:52;8.97;;;5.83;;
21806;SDS011;11065;50.786;7.840;2022-12-07T07:55:19;7.60;;;5.37;;
21806;SDS011;11065;50.786;7.840;2022-12-07T07:57:46;9.67;;;5.23;;
21806;SDS011;11065;50.786;7.840;2022-12-07T08:00:20;8.20;;;5.07;;
21806;SDS011;11065;50.786;7.840;2022-12-07T08:02:47;8.97;;;5.13;;
21806;SDS011;11065;50.786;7.840;2022-12-07T08:05:14;7.30;;;4.80;;
21806;SDS011;11065;50.786;7.840;2022-12-07T08:07:41;7.57;;;5.00;;
21806;SDS011;11065;50.786;7.840;2022-12-07T08:10:09;8.17;;;5.80;;
21806;SDS011;11065;50.786;7.840;2022-12-07T08:12:39;8.97;;;5.83;;
21806;SDS011;11065;50.786;7.840;2022-12-07T08:15:28;9.10;;;5.57;;
21806;SDS011;11065;50.786;7.840;2022-12-07T08:17:56;8.27;;;5.27;;
21806;SDS011;11065;50.786;7.840;2022-12-07T08:20:23;7.80;;;5.20;;
21806;SDS011;11065;50.786;7.840;2022-12-07T08:22:50;7.33;;;5.33;;
21806;SDS011;11065;50.786;7.840;2022-12-07T08:25:17;8.33;;;5.47;;
21806;SDS011;11065;50.786;7.840;2022-12-07T08:27:44;7.23;;;5.57;;
21806;SDS011;11065;50.786;7.840;2022-12-07T08:30:11;8.67;;;5.93;;
21806;SDS011;11065;50.786;7.840;2022-12-07T08:32:38;8.63;;;6.03;;
21806;SDS011;11065;50.786;7.840;2022-12-07T08:35:05;9.10;;;6.37;;
21806;SDS011;11065;50.786;7.840;2022-12-07T08:37:32;8.30;;;6.10;;
21806;SDS011;11065;50.786;7.840;2022-12-07T08:39:59;8.83;;;6.50;;
21806;SDS011;11065;50.786;7.840;2022-12-07T08:42:27;10.07;;;6.40;;
21806;SDS011;11065;50.786;7.840;2022-12-07T08:44:56;9.23;;;6.20;;
21806;SDS011;11065;50.786;7.840;2022-12-07T08:47:23;9.50;;;6.23;;
21806;SDS011;11065;50.786;7.840;2022-12-07T08:49:52;10.03;;;6.83;;
21806;SDS011;11065;50.786;7.840;2022-12-07T08:52:20;9.77;;;6.87;;
21806;SDS011;11065;50.786;7.840;2022-12-07T08:54:48;8.83;;;6.20;;
21806;SDS011;11065;50.786;7.840;2022-12-07T08:57:15;8.60;;;7.10;;
21806;SDS011;11065;50.786;7.840;2022-12-07T08:59:42;9.93;;;7.70;;
21806;SDS011;11065;50.786;7.840;2022-12-07T09:02:09;10.63;;;6.97;;
21806;SDS011;11065;50.786;7.840;2022-12-07T09:04:36;9.57;;;6.23;;
21806;SDS011;11065;50.786;7.840;2022-12-07T09:07:03;9.47;;;6.33;;
21806;SDS011;11065;50.786;7.840;2022-12-07T09:09:30;9.93;;;6.70;;
21806;SDS011;11065;50.786;7.840;2022-12-07T09:11:57;8.50;;;6.03;;
21806;SDS011;11065;50.786;7.840;2022-12-07T09:14:24;10.57;;;6.70;;
21806;SDS011;11065;50.786;7.840;2022-12-07T09:16:51;9.10;;;6.13;;
21806;SDS011;11065;50.786;7.840;2022-12-07T09:19:18;10.27;;;7.10;;
21806;SDS011;11065;50.786;7.840;2022-12-07T09:21:45;10.97;;;7.40;;
21806;SDS011;11065;50.786;7.840;2022-12-07T09:24:12;10.47;;;6.90;;
21806;SDS011;11065;50.786;7.840;2022-12-07T09:26:39;9.03;;;6.47;;
21806;SDS011;11065;50.786;7.840;2022-12-07T09:29:06;8.83;;;6.27;;
21806;SDS011;11065;50.786;7.840;2022-12-07T09:31:35;9.33;;;6.43;;
21806;SDS011;11065;50.786;7.840;2022-12-07T09:34:02;9.33;;;6.47;;
21806;SDS011;11065;50.786;7.840;2022-12-07T09:36:31;9.37;;;6.67;;
21806;SDS011;11065;50.786;7.840;2022-12-07T09:38:57;10.77;;;6.93;;
21806;SDS011;11065;50.786;7.840;2022-12-07T09:41:25;9.33;;;6.10;;
21806;SDS011;11065;50.786;7.840;2022-12-07T09:43:54;8.53;;;5.93;;
21806;SDS011;11065;50.786;7.840;2022-12-07T09:46:29;7.73;;;5.20;;
21806;SDS011;11065;50.786;7.840;2022-12-07T09:49:01;6.30;;;4.90;;
21806;SDS011;11065;50.786;7.840;2022-12-07T09:51:28;6.60;;;4.27;;
21806;SDS011;11065;50.786;7.840;2022-12-07T09:53:55;6.17;;;4.13;;
21806;SDS011;11065;50.786;7.840;2022-12-07T09:56:24;8.03;;;4.90;;
21806;SDS011;11065;50.786;7.840;2022-12-07T09:58:53;7.73;;;4.70;;
21806;SDS011;11065;50.786;7.840;2022-12-07T10:01:32;5.70;;;4.20;;
21806;SDS011;11065;50.786;7.840;2022-12-07T10:04:22;7.83;;;5.03;;
21806;SDS011;11065;50.786;7.840;2022-12-07T10:06:49;7.53;;;5.17;;
21806;SDS011;11065;50.786;7.840;2022-12-07T10:09:21;11.33;;;5.80;;
21806;SDS011;11065;50.786;7.840;2022-12-07T10:12:10;6.77;;;5.07;;
21806;SDS011;11065;50.786;7.840;2022-12-07T10:14:39;7.03;;;4.40;;
21806;SDS011;11065;50.786;7.840;2022-12-07T10:17:38;6.77;;;4.63;;
21806;SDS011;11065;50.786;7.840;2022-12-07T10:22:57;7.57;;;4.90;;
21806;SDS011;11065;50.786;7.840;2022-12-07T10:25:33;7.20;;;4.47;;
21806;SDS011;11065;50.786;7.840;2022-12-07T10:33:38;7.07;;;4.63;;
21806;SDS011;11065;50.786;7.840;2022-12-07T10:36:19;7.53;;;4.67;;
21806;SDS011;11065;50.786;7.840;2022-12-07T10:38:50;6.80;;;5.03;;
21806;SDS011;11065;50.786;7.840;2022-12-07T10:41:19;8.80;;;4.93;;
21806;SDS011;11065;50.786;7.840;2022-12-07T10:43:51;8.20;;;4.67;;
21806;SDS011;11065;50.786;7.840;2022-12-07T10:54:24;6.53;;;4.57;;
21806;SDS011;11065;50.786;7.840;2022-12-07T10:57:03;8.30;;;4.60;;
21806;SDS011;11065;50.786;7.840;2022-12-07T11:08:09;6.33;;;5.03;;
21806;SDS011;11065;50.786;7.840;2022-12-07T11:21:58;6.30;;;4.80;;
21806;SDS011;11065;50.786;7.840;2022-12-07T11:24:40;5.60;;;4.23;;
21806;SDS011;11065;50.786;7.840;2022-12-07T11:32:41;7.50;;;4.97;;
21806;SDS011;11065;50.786;7.840;2022-12-07T11:38:14;7.70;;;4.60;;
21806;SDS011;11065;50.786;7.840;2022-12-07T11:40:51;8.97;;;5.07;;
21806;SDS011;11065;50.786;7.840;2022-12-07T11:43:43;7.67;;;5.10;;
21806;SDS011;11065;50.786;7.840;2022-12-07T11:46:22;7.13;;;5.10;;
21806;SDS011;11065;50.786;7.840;2022-12-07T11:52:00;8.20;;;4.67;;
21806;SDS011;11065;50.786;7.840;2022-12-07T11:54:32;7.03;;;4.83;;
21806;SDS011;11065;50.786;7.840;2022-12-07T11:57:12;8.50;;;5.93;;
21806;SDS011;11065;50.786;7.840;2022-12-07T11:59:48;8.97;;;6.40;;
21806;SDS011;11065;50.786;7.840;2022-12-07T12:02:24;8.67;;;5.80;;
21806;SDS011;11065;50.786;7.840;2022-12-07T12:07:38;8.30;;;5.37;;
21806;SDS011;11065;50.786;7.840;2022-12-07T12:17:03;7.90;;;4.93;;
21806;SDS011;11065;50.786;7.840;2022-12-07T12:19:46;7.60;;;4.50;;
21806;SDS011;11065;50.786;7.840;2022-12-07T12:22:44;6.87;;;4.20;;
21806;SDS011;11065;50.786;7.840;2022-12-07T12:27:48;6.77;;;4.50;;
21806;SDS011;11065;50.786;7.840;2022-12-07T12:30:33;8.70;;;4.33;;
21806;SDS011;11065;50.786;7.840;2022-12-07T12:33:26;7.30;;;3.70;;
21806;SDS011;11065;50.786;7.840;2022-12-07T12:51:50;4.27;;;2.07;;
21806;SDS011;11065;50.786;7.840;2022-12-07T12:56:55;2.63;;;1.47;;
21806;SDS011;11065;50.786;7.840;2022-12-07T13:05:14;4.70;;;1.70;;
21806;SDS011;11065;50.786;7.840;2022-12-07T13:16:36;6.00;;;2.30;;
21806;SDS011;11065;50.786;7.840;2022-12-07T13:18:38;9.10;;;5.97;;
21806;SDS011;11065;50.786;7.840;2022-12-07T13:23:39;10.07;;;5.40;;
21806;SDS011;11065;50.786;7.840;2022-12-07T13:31:36;5.90;;;2.90;;
21806;SDS011;11065;50.786;7.840;2022-12-07T13:34:05;5.70;;;2.40;;
21806;SDS011;11065;50.786;7.840;2022-12-07T13:36:51;6.10;;;2.37;;
21806;SDS011;11065;50.786;7.840;2022-12-07T13:39:19;5.40;;;2.37;;
21806;SDS011;11065;50.786;7.840;2022-12-07T13:41:55;6.07;;;2.40;;
21806;SDS011;11065;50.786;7.840;2022-12-07T13:44:24;4.80;;;2.23;;
21806;SDS011;11065;50.786;7.840;2022-12-07T13:49:54;5.67;;;2.63;;
21806;SDS011;11065;50.786;7.840;2022-12-07T13:52:26;5.10;;;2.47;;
21806;SDS011;11065;50.786;7.840;2022-12-07T13:54:58;6.17;;;2.33;;
21806;SDS011;11065;50.786;7.840;2022-12-07T13:57:26;4.60;;;2.47;;
21806;SDS011;11065;50.786;7.840;2022-12-07T13:59:57;5.27;;;2.40;;
21806;SDS011;11065;50.786;7.840;2022-12-07T14:02:28;4.37;;;2.47;;
21806;SDS011;11065;50.786;7.840;2022-12-07T14:05:12;5.30;;;2.40;;
21806;SDS011;11065;50.786;7.840;2022-12-07T14:07:59;6.73;;;2.37;;
21806;SDS011;11065;50.786;7.840;2022-12-07T14:16:17;3.27;;;1.87;;
21806;SDS011;11065;50.786;7.840;2022-12-07T14:18:45;4.77;;;2.03;;
21806;SDS011;11065;50.786;7.840;2022-12-07T14:23:39;4.70;;;2.40;;
21806;SDS011;11065;50.786;7.840;2022-12-07T14:28:38;5.80;;;3.07;;
21806;SDS011;11065;50.786;7.840;2022-12-07T14:31:10;6.63;;;3.63;;
21806;SDS011;11065;50.786;7.840;2022-12-07T14:33:48;6.37;;;3.70;;
21806;SDS011;11065;50.786;7.840;2022-12-07T14:36:15;9.83;;;4.50;;
21806;SDS011;11065;50.786;7.840;2022-12-07T14:38:41;10.23;;;4.27;;
21806;SDS011;11065;50.786;7.840;2022-12-07T14:41:12;9.57;;;4.30;;
21806;SDS011;11065;50.786;7.840;2022-12-07T14:44:07;12.07;;;5.63;;
21806;SDS011;11065;50.786;7.840;2022-12-07T14:46:58;12.50;;;5.50;;
21806;SDS011;11065;50.786;7.840;2022-12-07T14:49:44;12.20;;;5.30;;
21806;SDS011;11065;50.786;7.840;2022-12-07T14:52:13;10.43;;;5.90;;
21806;SDS011;11065;50.786;7.840;2022-12-07T14:55:03;8.90;;;5.30;;
21806;SDS011;11065;50.786;7.840;2022-12-07T14:57:31;7.57;;;4.00;;
21806;SDS011;11065;50.786;7.840;2022-12-07T14:59:58;6.10;;;3.87;;
21806;SDS011;11065;50.786;7.840;2022-12-07T15:02:25;7.47;;;3.77;;
21806;SDS011;11065;50.786;7.840;2022-12-07T15:04:52;4.47;;;3.13;;
21806;SDS011;11065;50.786;7.840;2022-12-07T15:07:19;5.00;;;2.60;;
21806;SDS011;11065;50.786;7.840;2022-12-07T15:09:48;4.43;;;2.30;;
21806;SDS011;11065;50.786;7.840;2022-12-07T15:12:15;7.33;;;2.83;;
21806;SDS011;11065;50.786;7.840;2022-12-07T15:14:41;5.50;;;3.10;;
21806;SDS011;11065;50.786;7.840;2022-12-07T15:17:11;4.73;;;2.70;;
21806;SDS011;11065;50.786;7.840;2022-12-07T15:19:53;4.03;;;2.90;;
21806;SDS011;11065;50.786;7.840;2022-12-07T15:22:20;5.40;;;2.57;;
21806;SDS011;11065;50.786;7.840;2022-12-07T15:24:46;5.63;;;2.70;;
21806;SDS011;11065;50.786;7.840;2022-12-07T15:27:13;4.50;;;2.50;;
21806;SDS011;11065;50.786;7.840;2022-12-07T15:29:40;6.50;;;2.30;;
21806;SDS011;11065;50.786;7.840;2022-12-07T15:32:07;5.03;;;2.30;;
21806;SDS011;11065;50.786;7.840;2022-12-07T15:34:34;4.90;;;2.60;;
21806;SDS011;11065;50.786;7.840;2022-12-07T15:37:06;5.97;;;2.80;;
21806;SDS011;11065;50.786;7.840;2022-12-07T15:39:33;4.17;;;2.70;;
21806;SDS011;11065;50.786;7.840;2022-12-07T15:42:02;5.60;;;2.70;;
21806;SDS011;11065;50.786;7.840;2022-12-07T15:44:29;3.73;;;2.27;;
21806;SDS011;11065;50.786;7.840;2022-12-07T15:47:14;3.63;;;2.40;;
21806;SDS011;11065;50.786;7.840;2022-12-07T15:49:41;6.03;;;2.70;;
21806;SDS011;11065;50.786;7.840;2022-12-07T15:52:08;4.40;;;2.33;;
21806;SDS011;11065;50.786;7.840;2022-12-07T15:54:35;4.80;;;2.73;;
21806;SDS011;11065;50.786;7.840;2022-12-07T15:57:02;5.20;;;3.37;;
21806;SDS011;11065;50.786;7.840;2022-12-07T15:59:29;7.53;;;3.93;;
21806;SDS011;11065;50.786;7.840;2022-12-07T16:01:56;7.63;;;4.47;;
21806;SDS011;11065;50.786;7.840;2022-12-07T16:04:23;5.37;;;3.73;;
21806;SDS011;11065;50.786;7.840;2022-12-07T16:06:50;6.30;;;4.23;;
21806;SDS011;11065;50.786;7.840;2022-12-07T16:09:17;6.63;;;4.13;;
21806;SDS011;11065;50.786;7.840;2022-12-07T16:11:44;5.70;;;4.27;;
21806;SDS011;11065;50.786;7.840;2022-12-07T16:14:11;7.07;;;3.90;;
21806;SDS011;11065;50.786;7.840;2022-12-07T16:16:38;5.70;;;3.90;;
21806;SDS011;11065;50.786;7.840;2022-12-07T16:19:06;6.57;;;4.67;;
21806;SDS011;11065;50.786;7.840;2022-12-07T16:21:34;6.13;;;3.80;;
21806;SDS011;11065;50.786;7.840;2022-12-07T16:24:02;7.60;;;4.33;;
21806;SDS011;11065;50.786;7.840;2022-12-07T16:26:29;7.27;;;5.00;;
21806;SDS011;11065;50.786;7.840;2022-12-07T16:28:56;10.27;;;6.33;;
21806;SDS011;11065;50.786;7.840;2022-12-07T16:31:24;8.57;;;5.67;;
21806;SDS011;11065;50.786;7.840;2022-12-07T16:33:53;9.20;;;6.37;;
21806;SDS011;11065;50.786;7.840;2022-12-07T16:36:22;10.63;;;7.73;;
21806;SDS011;11065;50.786;7.840;2022-12-07T16:39:11;13.20;;;7.57;;
21806;SDS011;11065;50.786;7.840;2022-12-07T16:41:38;11.77;;;7.47;;
21806;SDS011;11065;50.786;7.840;2022-12-07T16:44:06;11.43;;;8.13;;
21806;SDS011;11065;50.786;7.840;2022-12-07T16:46:36;13.07;;;8.70;;
21806;SDS011;11065;50.786;7.840;2022-12-07T16:49:03;12.07;;;8.13;;
21806;SDS011;11065;50.786;7.840;2022-12-07T16:51:30;10.73;;;7.83;;
21806;SDS011;11065;50.786;7.840;2022-12-07T16:53:57;9.67;;;6.37;;
21806;SDS011;11065;50.786;7.840;2022-12-07T16:56:24;9.10;;;5.77;;
21806;SDS011;11065;50.786;7.840;2022-12-07T16:58:53;9.27;;;5.43;;
21806;SDS011;11065;50.786;7.840;2022-12-07T17:01:21;10.57;;;7.17;;
21806;SDS011;11065;50.786;7.840;2022-12-07T17:03:54;10.13;;;7.43;;
21806;SDS011;11065;50.786;7.840;2022-12-07T17:06:24;10.27;;;7.93;;
21806;SDS011;11065;50.786;7.840;2022-12-07T17:08:52;12.53;;;7.83;;
21806;SDS011;11065;50.786;7.840;2022-12-07T17:11:24;10.63;;;7.87;;
21806;SDS011;11065;50.786;7.840;2022-12-07T17:13:55;9.43;;;6.73;;
21806;SDS011;11065;50.786;7.840;2022-12-07T17:16:40;8.20;;;5.83;;
21806;SDS011;11065;50.786;7.840;2022-12-07T17:19:09;8.13;;;5.87;;
21806;SDS011;11065;50.786;7.840;2022-12-07T17:21:38;8.93;;;6.23;;
21806;SDS011;11065;50.786;7.840;2022-12-07T17:24:07;8.37;;;5.60;;
21806;SDS011;11065;50.786;7.840;2022-12-07T17:26:35;7.50;;;5.07;;